Time;durP1;ratioP1;P1;durP2;ratioP2;P2;SDS_P1;SDS_P2;PMS_P1;PMS_P2;Temp;Humidity;BMP_temperature;BMP_pressure;BME280_temperature;BME280_humidity;BME280_pressure;Samples;Min_cycle;Max_cycle;Signal;HPM_P1;HPM_P2
2022/05/14 00:00:24;;;;;;;16.02;5.50;;;;;;;11.93;nan;101888.94;5032307;28;20061;-47
2022/05/14 00:02:50;;;;;;;20.95;7.18;;;;;;;11.91;nan;101903.94;5002708;28;20033;-54
2022/05/14 00:05:20;;;;;;;16.00;5.70;;;;;;;11.88;nan;101904.00;5032250;28;20373;-50
2022/05/14 00:07:47;;;;;;;22.67;6.35;;;;;;;11.85;nan;101902.28;5032670;28;20120;-51
2022/05/14 00:10:13;;;;;;;27.02;5.88;;;;;;;11.84;nan;101897.91;5031839;28;21181;-47
2022/05/14 00:15:23;;;;;;;20.63;6.55;;;;;;;11.80;nan;101877.78;5032080;28;20474;-48
2022/05/14 00:17:49;;;;;;;26.60;6.38;;;;;;;11.69;nan;101867.47;5032057;28;20611;-49
2022/05/14 00:20:15;;;;;;;21.70;6.90;;;;;;;11.73;nan;101878.81;5030129;28;20113;-47
2022/05/14 00:22:40;;;;;;;28.95;6.90;;;;;;;11.43;nan;101831.94;5017323;28;20100;-47
2022/05/14 00:25:07;;;;;;;29.23;5.93;;;;;;;11.67;nan;101882.41;5031957;28;20037;-47
2022/05/14 00:27:33;;;;;;;18.52;5.97;;;;;;;11.69;nan;101896.47;5032093;28;20033;-48
2022/05/14 00:29:58;;;;;;;20.60;6.28;;;;;;;11.71;nan;101883.22;5031652;28;20034;-47
2022/05/14 00:32:24;;;;;;;24.23;7.40;;;;;;;11.71;nan;101881.47;5029794;28;20122;-47
2022/05/14 00:34:50;;;;;;;18.13;6.38;;;;;;;11.44;nan;101836.31;5002140;28;20034;-46
2022/05/14 00:37:16;;;;;;;23.73;6.32;;;;;;;11.67;nan;101882.41;5031656;28;20384;-50
2022/05/14 00:39:42;;;;;;;23.90;6.47;;;;;;;11.46;nan;101837.16;5031807;28;20041;-50
2022/05/14 00:42:08;;;;;;;26.13;7.18;;;;;;;11.77;nan;101883.13;5031660;28;20041;-50
2022/05/14 00:44:33;;;;;;;23.08;6.72;;;;;;;11.44;nan;101818.69;5016334;28;20079;-45
2022/05/14 00:47:01;;;;;;;26.35;6.65;;;;;;;11.78;nan;101879.59;5019556;28;20060;-46
2022/05/14 00:49:28;;;;;;;23.58;6.75;;;;;;;11.67;nan;101856.03;5020943;28;20083;-48
2022/05/14 00:51:54;;;;;;;22.27;7.63;;;;;;;11.72;nan;101871.78;5026917;28;20072;-46
2022/05/14 00:54:27;;;;;;;24.65;6.47;;;;;;;11.70;nan;101863.06;5014385;28;20033;-47
2022/05/14 00:56:57;;;;;;;23.58;7.13;;;;;;;11.44;nan;101815.22;5030050;28;20077;-52
2022/05/14 00:59:25;;;;;;;25.13;6.82;;;;;;;11.68;nan;101883.25;5018059;28;20413;-46
2022/05/14 01:01:50;;;;;;;27.23;7.93;;;;;;;11.34;nan;101830.34;5027603;28;20033;-45
2022/05/14 01:04:17;;;;;;;22.42;7.63;;;;;;;11.29;nan;101822.50;5031265;28;20404;-49
2022/05/14 01:06:50;;;;;;;26.42;6.65;;;;;;;11.27;nan;101834.00;5026612;28;20061;-49
2022/05/14 01:09:15;;;;;;;24.45;6.97;;;;;;;11.17;nan;101822.78;5021234;28;20048;-50
2022/05/14 01:11:41;;;;;;;28.40;7.30;;;;;;;11.15;nan;101816.66;5031496;28;20034;-49
2022/05/14 01:14:07;;;;;;;32.33;8.02;;;;;;;11.48;nan;101891.56;5031518;28;20034;-45
2022/05/14 01:16:33;;;;;;;29.52;8.15;;;;;;;11.40;nan;101861.88;5028145;28;20029;-46
2022/05/14 01:18:59;;;;;;;21.38;7.13;;;;;;;11.25;nan;101838.44;5019150;28;20033;-51
2022/05/14 01:21:41;;;;;;;18.48;7.53;;;;;;;11.07;nan;101809.78;5021243;28;20048;-47
2022/05/14 01:27:03;;;;;;;22.33;7.78;;;;;;;11.37;nan;101877.75;5024498;28;20112;-48
2022/05/14 01:29:29;;;;;;;32.88;8.82;;;;;;;11.33;nan;101873.41;5028086;28;20418;-46
2022/05/14 01:31:55;;;;;;;26.90;7.97;;;;;;;11.07;nan;101829.09;5017457;28;20034;-49
2022/05/14 01:34:28;;;;;;;28.40;8.90;;;;;;;11.09;nan;101829.09;5033293;28;20025;-45
2022/05/14 01:36:54;;;;;;;26.58;7.53;;;;;;;11.07;nan;101836.13;5034722;28;20029;-49
2022/05/14 01:39:20;;;;;;;20.90;7.60;;;;;;;11.28;nan;101878.78;5024358;28;20026;-51
2022/05/14 01:41:45;;;;;;;22.35;7.15;;;;;;;11.32;nan;101878.72;5027957;28;20040;-47
2022/05/14 01:44:11;;;;;;;25.92;7.72;;;;;;;11.34;nan;101876.91;5034015;28;20473;-49
2022/05/14 01:46:36;;;;;;;21.55;7.72;;;;;;;11.04;nan;101837.06;5034452;28;20484;-47
2022/05/14 01:49:03;;;;;;;29.25;7.90;;;;;;;11.31;nan;101885.75;5034681;28;20494;-55
2022/05/14 01:51:29;;;;;;;28.33;8.05;;;;;;;10.95;nan;101841.63;5034624;28;20040;-49
2022/05/14 01:53:54;;;;;;;30.23;8.60;;;;;;;10.97;nan;101837.22;5034356;28;20128;-49
2022/05/14 01:56:19;;;;;;;30.90;8.20;;;;;;;11.25;nan;101889.38;5016690;28;20404;-45
2022/05/14 01:58:45;;;;;;;32.10;7.88;;;;;;;11.29;nan;101883.13;5034414;28;20029;-51
2022/05/14 02:01:25;;;;;;;27.58;8.40;;;;;;;11.00;nan;101835.41;5034206;28;20037;-47
2022/05/14 02:03:55;;;;;;;21.42;7.38;;;;;;;11.06;nan;101863.41;5034425;28;20104;-46
2022/05/14 02:06:21;;;;;;;26.75;8.13;;;;;;;10.99;nan;101856.50;5034152;28;20052;-46
2022/05/14 02:08:46;;;;;;;33.45;10.45;;;;;;;11.15;nan;101873.75;5034261;28;20476;-47
2022/05/14 02:11:13;;;;;;;21.85;8.35;;;;;;;10.95;nan;101845.13;5034081;28;20076;-47
2022/05/14 02:13:39;;;;;;;34.10;8.90;;;;;;;11.19;nan;101900.03;5034345;28;20112;-51
2022/05/14 02:16:04;;;;;;;22.83;8.43;;;;;;;11.13;nan;101886.97;5033831;28;20120;-47
2022/05/14 02:18:30;;;;;;;25.13;7.70;;;;;;;11.13;nan;101904.53;5034016;28;20033;-47
2022/05/14 02:20:56;;;;;;;24.63;7.10;;;;;;;10.80;nan;101860.34;5034006;28;20472;-46
2022/05/14 02:23:22;;;;;;;26.30;9.00;;;;;;;10.98;nan;101907.44;5024838;28;20041;-47
2022/05/14 02:25:47;;;;;;;32.50;9.15;;;;;;;10.96;nan;101919.78;5033985;28;20289;-46
2022/05/14 02:28:13;;;;;;;33.72;9.90;;;;;;;10.68;nan;101872.81;5000058;28;20045;-47
2022/05/14 02:30:39;;;;;;;24.90;9.32;;;;;;;10.85;nan;101908.56;5029752;28;20465;-46
2022/05/14 02:33:04;;;;;;;21.70;8.88;;;;;;;10.82;nan;101912.09;5022783;28;20039;-50
2022/05/14 02:35:29;;;;;;;25.40;9.07;;;;;;;10.76;nan;101906.94;5033115;28;20045;-48
2022/05/14 02:37:55;;;;;;;36.78;10.10;;;;;;;10.56;nan;101885.31;5029164;28;20042;-46
2022/05/14 02:40:21;;;;;;;25.85;9.40;;;;;;;10.67;nan;101907.09;5032608;28;20056;-49
2022/05/14 02:42:46;;;;;;;26.30;10.18;;;;;;;10.68;nan;101914.94;5033793;28;20041;-47
2022/05/14 02:45:12;;;;;;;22.23;7.85;;;;;;;10.63;nan;101911.53;5012828;28;20045;-45
2022/05/14 02:47:37;;;;;;;35.25;9.68;;;;;;;10.56;nan;101912.53;5028166;28;20444;-47
2022/05/14 02:50:05;;;;;;;28.60;9.68;;;;;;;10.51;nan;101932.75;5017783;28;20120;-45
2022/05/14 02:52:30;;;;;;;23.38;9.88;;;;;;;10.47;nan;101919.69;5030260;28;20113;-47
2022/05/14 02:54:55;;;;;;;26.88;10.07;;;;;;;10.38;nan;101912.78;5004407;28;20608;-45
2022/05/14 02:57:21;;;;;;;26.15;10.07;;;;;;;10.34;nan;101918.09;5033398;28;20167;-47
2022/05/14 02:59:46;;;;;;;28.92;10.95;;;;;;;10.39;nan;101918.94;5033420;28;20034;-50
2022/05/14 03:02:11;;;;;;;31.50;10.82;;;;;;;10.21;nan;101867.44;5033315;28;20473;-46
2022/05/14 03:04:40;;;;;;;29.98;11.80;;;;;;;10.21;nan;101859.53;4996020;28;20622;-47
2022/05/14 03:07:07;;;;;;;32.95;11.43;;;;;;;10.45;nan;101916.22;5012099;28;20034;-49
2022/05/14 03:09:33;;;;;;;27.77;11.18;;;;;;;10.16;nan;101879.75;5033176;28;20392;-47
2022/05/14 03:11:58;;;;;;;34.40;10.88;;;;;;;10.37;nan;101926.84;5015708;28;20125;-48
2022/05/14 03:14:24;;;;;;;35.47;11.70;;;;;;;10.30;nan;101919.94;5030973;28;20120;-47
2022/05/14 03:16:49;;;;;;;30.33;10.68;;;;;;;10.02;nan;101871.16;4995839;28;20038;-48
2022/05/14 03:19:15;;;;;;;38.28;11.80;;;;;;;9.91;nan;101860.81;5024222;28;20072;-50
2022/05/14 03:21:40;;;;;;;24.02;11.85;;;;;;;9.87;nan;101852.97;5020233;28;20528;-50
2022/05/14 03:24:06;;;;;;;29.30;11.13;;;;;;;10.15;nan;101907.84;5032791;28;20033;-49
2022/05/14 03:26:31;;;;;;;26.15;11.73;;;;;;;9.87;nan;101866.97;5017184;28;20278;-49
2022/05/14 03:28:57;;;;;;;26.65;10.93;;;;;;;10.07;nan;101904.41;5032904;28;20500;-52
2022/05/14 03:31:22;;;;;;;31.10;10.63;;;;;;;10.08;nan;101908.78;5032975;28;20041;-53
2022/05/14 03:33:47;;;;;;;30.50;11.10;;;;;;;9.93;nan;101879.19;5032892;28;20477;-49
2022/05/14 03:36:13;;;;;;;23.85;10.13;;;;;;;10.21;nan;101909.53;5030582;28;20502;-50
2022/05/14 03:38:38;;;;;;;29.25;10.40;;;;;;;9.93;nan;101869.53;5032886;28;20053;-49
2022/05/14 03:41:04;;;;;;;30.42;10.52;;;;;;;10.22;nan;101916.50;5032728;28;20037;-47
2022/05/14 03:43:30;;;;;;;32.58;11.95;;;;;;;10.11;nan;101898.22;5024893;28;20095;-50
2022/05/14 03:45:56;;;;;;;27.65;10.80;;;;;;;10.19;nan;101908.66;5017019;28;20120;-49
2022/05/14 03:48:21;;;;;;;26.70;10.30;;;;;;;10.11;nan;101898.22;5032320;28;20125;-51
2022/05/14 03:50:46;;;;;;;27.20;11.02;;;;;;;10.22;nan;101908.63;5011583;28;20034;-49
2022/05/14 03:53:12;;;;;;;31.92;11.98;;;;;;;10.24;nan;101912.13;5013214;28;20033;-48
2022/05/14 03:55:37;;;;;;;27.48;11.48;;;;;;;10.17;nan;101920.97;5032163;28;20044;-51
2022/05/14 03:58:03;;;;;;;34.08;10.32;;;;;;;10.21;nan;101933.22;5032464;28;20037;-50
2022/05/14 04:00:28;;;;;;;31.58;9.95;;;;;;;9.63;nan;101820.00;5032562;28;20037;-49
2022/05/14 04:02:54;;;;;;;31.40;10.77;;;;;;;10.17;nan;101923.63;5019514;28;20499;-48
2022/05/14 04:05:19;;;;;;;26.75;10.57;;;;;;;10.19;nan;101923.59;5032243;28;20036;-49
2022/05/14 04:07:46;;;;;;;23.75;10.35;;;;;;;9.89;nan;101867.84;5032123;28;20037;-49
2022/05/14 04:10:12;;;;;;;24.63;9.57;;;;;;;10.19;nan;101928.88;5015719;28;20030;-46
2022/05/14 04:12:38;;;;;;;31.85;9.35;;;;;;;9.86;nan;101872.28;5032155;28;20451;-51
2022/05/14 04:15:05;;;;;;;21.65;9.60;;;;;;;9.84;nan;101874.91;5032332;28;20029;-47
2022/05/14 04:17:30;;;;;;;30.85;11.32;;;;;;;10.21;nan;101942.88;5020890;28;20117;-49
2022/05/14 04:19:55;;;;;;;25.67;11.07;;;;;;;9.97;nan;101880.88;5027572;28;20133;-51
2022/05/14 04:22:21;;;;;;;37.72;12.55;;;;;;;10.02;nan;101881.69;5001313;28;20034;-47
2022/05/14 04:24:46;;;;;;;28.40;11.10;;;;;;;10.36;nan;101940.03;5032115;28;20091;-52
2022/05/14 04:27:11;;;;;;;29.83;10.60;;;;;;;10.04;nan;101872.88;5032079;28;20045;-52
2022/05/14 04:29:37;;;;;;;27.52;10.45;;;;;;;10.45;nan;101943.38;5031963;28;20112;-51
2022/05/14 04:32:02;;;;;;;28.98;9.77;;;;;;;10.47;nan;101941.63;5031811;28;20033;-46
2022/05/14 04:34:27;;;;;;;24.92;9.48;;;;;;;10.20;nan;101899.00;5031807;28;20034;-47
2022/05/14 04:36:55;;;;;;;29.25;9.07;;;;;;;10.57;nan;101948.47;5031743;28;20072;-51
2022/05/14 04:39:21;;;;;;;26.23;9.80;;;;;;;10.39;nan;101888.19;5031744;28;20030;-48
2022/05/14 04:41:46;;;;;;;30.67;9.88;;;;;;;10.53;nan;101895.91;5031643;28;20043;-48
2022/05/14 04:44:12;;;;;;;27.38;9.43;;;;;;;10.64;nan;101886.06;5029383;28;20030;-48
2022/05/14 04:46:37;;;;;;;22.17;7.88;;;;;;;10.66;nan;101887.78;5016672;28;20034;-48
2022/05/14 04:49:03;;;;;;;22.33;8.52;;;;;;;11.05;nan;101943.34;5031588;28;20041;-48
2022/05/14 04:51:28;;;;;;;24.27;7.38;;;;;;;11.00;nan;101934.66;5023641;28;20041;-49
2022/05/14 04:53:54;;;;;;;23.23;8.68;;;;;;;11.18;nan;101942.22;5027143;28;20117;-50
2022/05/14 04:56:19;;;;;;;22.85;8.13;;;;;;;11.41;nan;101949.72;5014146;28;20041;-49
2022/05/14 04:58:44;;;;;;;18.33;7.95;;;;;;;11.49;nan;101943.41;5034652;28;20468;-50
2022/05/14 05:01:10;;;;;;;21.20;7.18;;;;;;;11.38;nan;101891.78;5035591;28;20041;-49
2022/05/14 05:03:36;;;;;;;24.58;6.75;;;;;;;11.82;nan;101952.50;5011871;28;20033;-48
2022/05/14 05:06:01;;;;;;;20.08;7.15;;;;;;;11.83;nan;101936.63;5020202;28;20040;-48
2022/05/14 05:08:29;;;;;;;23.08;7.55;;;;;;;11.94;nan;101935.56;5015809;28;20041;-51
2022/05/14 05:10:55;;;;;;;20.02;6.88;;;;;;;12.13;nan;101950.09;5035527;28;20116;-47
2022/05/14 05:13:23;;;;;;;18.75;6.10;;;;;;;12.20;nan;101968.38;5014338;28;20486;-51
2022/05/14 05:15:49;;;;;;;16.63;6.22;;;;;;;12.22;nan;101971.88;5030114;28;20425;-50
2022/05/14 05:18:15;;;;;;;18.98;7.32;;;;;;;12.21;nan;101961.34;5035115;28;20110;-49
2022/05/14 05:20:43;;;;;;;16.83;6.10;;;;;;;12.34;nan;101981.31;5030701;28;20163;-50
2022/05/14 05:23:15;;;;;;;21.27;7.53;;;;;;;12.38;nan;101957.44;5035223;28;20037;-48
2022/05/14 05:25:41;;;;;;;16.30;6.40;;;;;;;12.60;nan;101972.81;5035231;28;20036;-49
2022/05/14 05:28:07;;;;;;;19.40;6.53;;;;;;;12.32;nan;101922.38;5032199;28;20121;-49
2022/05/14 05:30:32;;;;;;;23.67;6.68;;;;;;;12.34;nan;101928.50;5028603;28;20052;-48
2022/05/14 05:32:58;;;;;;;19.52;5.63;;;;;;;12.55;nan;101978.19;5023914;28;20037;-49
2022/05/14 05:35:23;;;;;;;18.83;6.18;;;;;;;12.65;nan;101994.69;5021468;28;20038;-50
2022/05/14 05:37:49;;;;;;;18.13;6.38;;;;;;;12.39;nan;101929.25;5025585;28;20041;-49
2022/05/14 05:40:15;;;;;;;18.08;6.97;;;;;;;12.53;nan;101958.00;5017532;28;20124;-48
2022/05/14 05:42:41;;;;;;;15.32;5.60;;;;;;;12.68;nan;101924.19;5034839;28;20034;-48
2022/05/14 05:45:07;;;;;;;17.23;5.38;;;;;;;12.99;nan;101977.13;5033973;28;20077;-48
2022/05/14 05:47:33;;;;;;;22.15;6.72;;;;;;;13.06;nan;101999.88;5018464;28;20065;-48
2022/05/14 05:49:58;;;;;;;16.13;5.65;;;;;;;12.77;nan;101955.66;5030926;28;20100;-48
2022/05/14 05:52:24;;;;;;;13.95;5.72;;;;;;;12.82;nan;101947.63;5034239;28;20045;-49
2022/05/14 05:57:37;;;;;;;17.50;5.47;;;;;;;13.17;nan;101957.34;5034471;28;20299;-49
2022/05/14 06:00:30;;;;;;;20.42;7.13;;;;;;;13.57;nan;102003.03;5034407;28;20052;-49
2022/05/14 06:02:56;;;;;;;12.27;5.50;;;;;;;13.60;nan;102015.31;5031744;28;20044;-50
2022/05/14 06:05:22;;;;;;;19.85;6.20;;;;;;;13.49;nan;101995.28;5034261;28;20064;-51
2022/05/14 06:07:47;;;;;;;16.27;5.45;;;;;;;13.85;nan;102022.56;5001396;28;20061;-49
2022/05/14 06:10:15;;;;;;;18.33;5.18;;;;;;;14.13;nan;102027.09;5032403;28;20470;-50
2022/05/14 06:12:40;;;;;;;17.13;6.38;;;;;;;14.34;nan;102023.84;5034099;28;20040;-48
2022/05/14 06:15:10;;;;;;;18.95;5.43;;;;;;;14.48;nan;102019.88;5034358;28;20116;-49
2022/05/14 06:17:36;;;;;;;21.60;6.47;;;;;;;14.48;nan;102003.09;5010943;28;20510;-50
2022/05/14 06:20:04;;;;;;;16.52;5.55;;;;;;;14.30;nan;101985.94;5000065;28;20033;-50
2022/05/14 06:22:29;;;;;;;14.90;5.95;;;;;;;14.21;nan;101982.72;5033938;28;20029;-50
2022/05/14 06:24:54;;;;;;;14.35;5.85;;;;;;;14.53;nan;102035.66;5034105;28;20128;-52
2022/05/14 06:27:20;;;;;;;20.63;6.15;;;;;;;14.52;nan;102042.72;5033919;28;20400;-48
2022/05/14 06:29:46;;;;;;;13.95;5.38;;;;;;;14.35;nan;101991.16;5034173;28;20483;-51
2022/05/14 06:32:11;;;;;;;13.90;5.93;;;;;;;14.81;nan;102040.97;5033793;28;20033;-49
2022/05/14 06:34:36;;;;;;;17.80;6.10;;;;;;;14.87;nan;102039.00;5034234;28;20037;-49
2022/05/14 06:37:02;;;;;;;17.48;6.57;;;;;;;15.01;nan;102051.81;5033707;28;20037;-47
2022/05/14 06:39:27;;;;;;;17.67;6.60;;;;;;;14.92;nan;102001.72;5025507;28;20136;-48
2022/05/14 06:41:53;;;;;;;17.92;5.90;;;;;;;15.29;nan;102010.25;5019205;28;20056;-52
2022/05/14 06:44:18;;;;;;;16.05;6.28;;;;;;;15.89;nan;102060.38;5033927;28;20083;-52
2022/05/14 06:46:44;;;;;;;12.50;5.00;;;;;;;15.91;nan;102009.88;5033750;28;20036;-49
2022/05/14 06:49:09;;;;;;;17.30;6.05;;;;;;;16.26;nan;102066.13;5033974;28;20465;-47
2022/05/14 06:51:34;;;;;;;15.98;5.65;;;;;;;16.11;nan;102056.03;5033481;28;20069;-55
2022/05/14 06:54:03;;;;;;;15.30;5.72;;;;;;;15.89;nan;102065.69;5033418;28;20037;-50
2022/05/14 06:56:30;;;;;;;15.35;5.35;;;;;;;15.73;nan;102081.28;5032986;28;20111;-49
2022/05/14 06:58:56;;;;;;;17.13;5.70;;;;;;;15.59;nan;102067.63;5020939;28;20060;-52
2022/05/14 07:01:22;;;;;;;13.65;5.78;;;;;;;15.07;nan;101950.84;5023881;28;20657;-50
2022/05/14 07:06:38;;;;;;;12.20;5.50;;;;;;;16.05;nan;102019.06;5018825;28;20083;-49
2022/05/14 07:09:15;;;;;;;14.77;5.60;;;;;;;16.24;nan;102040.53;5033013;28;20063;-50
2022/05/14 07:11:43;;;;;;;15.73;5.25;;;;;;;16.17;nan;102044.34;5032829;28;20037;-48
2022/05/14 07:14:10;;;;;;;19.98;6.10;;;;;;;16.10;nan;102043.69;5031076;28;20057;-51
2022/05/14 07:16:36;;;;;;;12.63;5.88;;;;;;;16.37;nan;102067.53;5025427;28;20034;-53
2022/05/14 07:19:01;;;;;;;16.67;5.20;;;;;;;17.09;nan;102090.47;5022041;28;20032;-50
2022/05/14 07:21:27;;;;;;;19.05;6.63;;;;;;;17.32;nan;102101.91;5017910;28;20041;-50
2022/05/14 07:23:53;;;;;;;12.60;5.38;;;;;;;17.49;nan;102113.66;5031870;28;20041;-51
2022/05/14 07:26:18;;;;;;;13.05;5.10;;;;;;;17.56;nan;102118.72;5015196;28;20044;-49
2022/05/14 07:28:44;;;;;;;19.13;5.93;;;;;;;17.65;nan;102114.81;5032772;28;20032;-48
2022/05/14 07:31:09;;;;;;;10.20;4.47;;;;;;;18.10;nan;102101.31;5032708;28;20120;-49
2022/05/14 07:33:36;;;;;;;11.50;4.70;;;;;;;;;;5020972;28;20129;-50
2022/05/14 07:36:05;;;;;;;11.77;4.90;;;;;;;18.89;nan;102090.59;5032573;28;20507;-46
2022/05/14 07:38:32;;;;;;;15.10;4.70;;;;;;;19.43;nan;102141.41;5032486;28;20059;-49
2022/05/14 07:40:58;;;;;;;15.48;4.95;;;;;;;19.89;nan;102136.44;5032674;28;20243;-46
2022/05/14 07:43:26;;;;;;;14.20;5.28;;;;;;;19.92;nan;102078.38;5023906;28;20065;-49
2022/05/14 07:45:59;;;;;;;16.73;5.00;;;;;;;20.65;nan;102118.16;5015504;28;20033;-50
2022/05/14 07:48:29;;;;;;;11.13;5.18;;;;;;;21.15;nan;102122.56;5014722;28;20032;-51
2022/05/14 07:50:54;;;;;;;11.70;4.40;;;;;;;21.29;nan;102101.22;5019891;28;20036;-48
2022/05/14 07:53:20;;;;;;;13.68;4.97;;;;;;;21.84;nan;102145.28;5032455;28;20021;-52
2022/05/14 07:55:47;;;;;;;12.52;4.63;;;;;;;21.77;nan;102153.78;5009884;28;20477;-52
2022/05/14 07:58:13;;;;;;;16.08;4.65;;;;;;;21.61;nan;102159.16;5031128;28;20116;-48
2022/05/14 08:00:39;;;;;;;13.63;4.28;;;;;;;21.86;nan;102151.41;5017827;28;20064;-53
2022/05/14 08:03:05;;;;;;;14.90;4.75;;;;;;;22.24;nan;102159.91;5009830;28;20053;-50
2022/05/14 08:05:30;;;;;;;11.95;4.43;;;;;;;21.85;nan;102116.69;5032204;28;20667;-50
2022/05/14 08:07:56;;;;;;;10.85;3.95;;;;;;;22.09;nan;102117.06;5014756;28;20037;-46
2022/05/14 08:10:21;;;;;;;11.00;4.18;;;;;;;22.53;nan;102168.88;5032277;28;20459;-48
2022/05/14 08:12:51;;;;;;;11.25;4.25;;;;;;;22.48;nan;102167.41;5017713;28;20374;-49
2022/05/14 08:15:17;;;;;;;11.73;4.43;;;;;;;22.68;nan;102167.94;5031246;28;20025;-50
2022/05/14 08:17:44;;;;;;;13.02;4.22;;;;;;;22.72;nan;102125.69;5030487;28;20091;-49
2022/05/14 08:20:10;;;;;;;10.77;4.22;;;;;;;23.16;nan;102118.34;5014500;28;20042;-50
2022/05/14 08:25:20;;;;;;;11.73;3.85;;;;;;;23.40;nan;102177.72;5031881;28;20103;-49
2022/05/14 08:27:45;;;;;;;12.85;4.72;;;;;;;23.18;nan;102166.56;5031893;28;20029;-49
2022/05/14 08:30:15;;;;;;;12.52;4.60;;;;;;;23.30;nan;102144.31;5031510;28;20040;-49
2022/05/14 08:32:41;;;;;;;11.50;3.97;;;;;;;23.61;nan;102165.56;5027275;28;20075;-52
2022/05/14 08:35:06;;;;;;;11.63;4.05;;;;;;;23.40;nan;102169.66;5020861;28;20145;-49
2022/05/14 08:37:32;;;;;;;13.88;4.78;;;;;;;23.32;nan;102127.13;5004071;28;20033;-49
2022/05/14 08:39:57;;;;;;;13.90;4.78;;;;;;;23.91;nan;102170.72;5027791;28;20400;-51
2022/05/14 08:42:23;;;;;;;12.23;4.03;;;;;;;23.81;nan;102126.59;5031768;28;20037;-53
2022/05/14 08:44:49;;;;;;;13.00;4.28;;;;;;;23.91;nan;102182.34;5026390;28;20497;-51
2022/05/14 08:47:35;;;;;;;15.25;4.28;;;;;;;23.46;nan;102180.00;5021789;28;20040;-50
2022/05/14 08:50:01;;;;;;;11.82;4.07;;;;;;;23.03;nan;102130.81;5031738;28;20503;-49
2022/05/14 08:52:28;;;;;;;11.82;4.38;;;;;;;23.66;nan;102170.63;5026012;28;20030;-46
2022/05/14 08:55:04;;;;;;;11.68;4.60;;;;;;;24.09;nan;102177.53;5007097;28;20488;-53
2022/05/14 08:57:48;;;;;;;9.52;3.60;;;;;;;24.05;nan;102171.50;5036808;28;20439;-50
2022/05/14 09:00:14;;;;;;;11.35;3.97;;;;;;;24.09;nan;102174.84;5028966;28;20054;-50
2022/05/14 09:02:51;;;;;;;11.80;4.03;;;;;;;23.91;nan;102179.66;5033433;28;20037;-50
2022/05/14 09:05:21;;;;;;;12.15;3.83;;;;;;;24.11;nan;102174.81;5030150;28;20025;-47
2022/05/14 09:07:47;;;;;;;12.63;4.10;;;;;;;24.08;nan;102171.28;5031340;28;20487;-49
2022/05/14 09:10:40;;;;;;;14.55;4.32;;;;;;;23.12;nan;102166.97;5031518;28;20438;-51
2022/05/14 09:13:08;;;;;;;12.20;4.00;;;;;;;22.28;nan;102164.13;5020665;28;20046;-52
2022/05/14 09:15:34;;;;;;;15.32;4.95;;;;;;;21.57;nan;102170.16;5031458;28;20095;-48
2022/05/14 09:18:08;;;;;;;12.52;4.35;;;;;;;20.72;nan;102119.53;5031268;28;20029;-50
2022/05/14 09:20:47;;;;;;;13.98;4.28;;;;;;;20.69;nan;102159.84;5031415;28;20030;-47
2022/05/14 09:23:23;;;;;;;12.27;4.30;;;;;;;20.32;nan;102103.91;5031449;28;20124;-52
2022/05/14 09:25:49;;;;;;;16.65;4.68;;;;;;;20.58;nan;102097.16;5031334;28;20397;-45
2022/05/14 09:28:27;;;;;;;12.00;4.00;;;;;;;21.53;nan;102157.88;5012872;28;20040;-50
2022/05/14 09:30:54;;;;;;;18.05;4.20;;;;;;;22.25;nan;102158.94;5030374;28;20163;-51
2022/05/14 09:33:34;;;;;;;12.38;4.32;;;;;;;23.26;nan;102178.56;5031443;28;20164;-51
2022/05/14 09:36:01;;;;;;;13.38;4.00;;;;;;;23.33;nan;102112.72;5031267;28;20041;-48
2022/05/14 09:38:27;;;;;;;15.13;4.38;;;;;;;23.25;nan;102124.94;5031233;28;20045;-49
2022/05/14 09:40:55;;;;;;;10.80;3.92;;;;;;;23.35;nan;102156.47;5018181;28;20496;-47
2022/05/14 09:43:20;;;;;;;14.95;4.03;;;;;;;23.73;nan;102163.91;5013464;28;20034;-50
2022/05/14 09:45:57;;;;;;;17.87;4.73;;;;;;;24.35;nan;102168.59;5020750;28;20036;-48
2022/05/14 09:48:49;;;;;;;13.63;4.13;;;;;;;25.14;nan;102187.22;5001304;28;20826;-52
2022/05/14 09:51:29;;;;;;;14.13;4.70;;;;;;;25.44;nan;102176.91;5034407;28;20071;-51
2022/05/14 09:53:55;;;;;;;11.82;4.28;;;;;;;24.86;nan;102174.00;5035023;28;20033;-53
2022/05/14 09:56:48;;;;;;;15.15;4.43;;;;;;;24.09;nan;102166.78;5034621;28;20049;-49
2022/05/14 09:59:36;;;;;;;12.70;5.22;;;;;;;22.92;nan;102179.84;5024323;28;20032;-49
2022/05/14 10:02:15;;;;;;;9.70;4.05;;;;;;;22.57;nan;102151.63;5034340;28;20134;-52
2022/05/14 10:05:06;;;;;;;10.65;4.15;;;;;;;23.22;nan;102182.41;5032689;28;20116;-50
2022/05/14 10:07:36;;;;;;;12.25;3.88;;;;;;;23.45;nan;102170.22;5034294;28;20488;-51
2022/05/14 10:10:33;;;;;;;9.65;3.05;;;;;;;22.82;nan;102142.94;5034155;28;20025;-49
2022/05/14 10:13:06;;;;;;;11.07;4.38;;;;;;;22.68;nan;102159.06;5016567;28;20477;-48
2022/05/14 10:15:39;;;;;;;11.50;4.18;;;;;;;22.28;nan;102101.56;5032891;28;20037;-47
2022/05/14 10:18:17;;;;;;;12.25;4.70;;;;;;;22.63;nan;102159.28;5034388;28;20484;-51
2022/05/14 10:20:48;;;;;;;15.00;4.35;;;;;;;22.43;nan;102165.91;5033651;28;20037;-49
2022/05/14 10:26:46;;;;;;;12.15;4.30;;;;;;;23.63;nan;102169.00;5034201;28;20604;-54
2022/05/14 10:29:26;;;;;;;9.85;3.58;;;;;;;25.34;nan;102166.91;5022308;28;20033;-46
2022/05/14 10:31:58;;;;;;;11.63;4.18;;;;;;;25.68;nan;102171.56;5033835;28;20029;-49
2022/05/14 10:34:31;;;;;;;14.85;4.53;;;;;;;24.93;nan;102124.97;5033824;28;20098;-48
2022/05/14 10:37:03;;;;;;;9.93;3.97;;;;;;;24.32;nan;102122.19;5033727;28;20025;-49
2022/05/14 10:39:41;;;;;;;13.88;4.35;;;;;;;23.68;nan;102123.00;5028832;28;20095;-49
2022/05/14 10:42:16;;;;;;;11.98;4.03;;;;;;;23.75;nan;102117.13;5015873;28;20025;-48
2022/05/14 10:45:20;;;;;;;13.93;3.90;;;;;;;24.44;nan;102172.47;5022500;28;20025;-47
2022/05/14 10:47:49;;;;;;;16.98;4.57;;;;;;;23.88;nan;102177.16;5033442;28;20033;-49
2022/05/14 10:50:19;;;;;;;10.57;4.00;;;;;;;22.77;nan;102120.88;5032415;28;20096;-48
2022/05/14 10:52:46;;;;;;;14.10;4.05;;;;;;;21.76;nan;102042.19;5033707;28;20030;-49
2022/05/14 10:55:22;;;;;;;10.88;4.40;;;;;;;22.42;nan;102164.16;5031792;28;20032;-48
2022/05/14 10:57:57;;;;;;;16.00;5.50;;;;;;;23.35;nan;102163.69;5013094;28;20041;-50
2022/05/14 11:00:28;;;;;;;9.50;3.90;;;;;;;25.27;nan;102169.19;5027594;28;20029;-48
2022/05/14 11:03:00;;;;;;;16.25;4.72;;;;;;;25.86;nan;102112.69;5032545;28;20041;-46
2022/05/14 11:05:49;;;;;;;16.98;5.20;;;;;;;26.46;nan;102180.84;5018878;28;20113;-51
2022/05/14 11:08:27;;;;;;;13.75;5.03;;;;;;;25.93;nan;102132.78;5032946;28;20029;-48
2022/05/14 11:11:28;;;;;;;12.65;4.95;;;;;;;26.81;nan;102184.34;5033304;28;20041;-46
2022/05/14 11:14:04;;;;;;;9.57;4.18;;;;;;;27.35;nan;102178.16;5008447;28;20381;-47
2022/05/14 11:16:37;;;;;;;14.50;4.75;;;;;;;28.30;nan;102193.66;5026889;28;20037;-48
2022/05/14 11:19:04;;;;;;;13.02;4.90;;;;;;;28.09;nan;102195.47;5032944;28;20044;-48
2022/05/14 11:21:55;;;;;;;14.25;4.75;;;;;;;27.80;nan;102162.72;5033410;28;20037;-47
2022/05/14 11:24:40;;;;;;;12.05;4.47;;;;;;;27.61;nan;102140.91;5029605;28;20068;-46
2022/05/14 11:27:06;;;;;;;12.90;4.45;;;;;;;26.95;nan;102137.31;5032824;28;20083;-47
2022/05/14 11:29:52;;;;;;;11.40;4.75;;;;;;;26.82;nan;102179.81;5028484;28;20121;-44
2022/05/14 11:32:19;;;;;;;9.25;4.95;;;;;;;27.15;nan;102193.31;5028533;28;20026;-47
2022/05/14 11:34:59;;;;;;;12.68;6.00;;;;;;;26.45;nan;102171.00;5032801;28;20038;-46
2022/05/14 11:37:43;;;;;;;13.63;5.23;;;;;;;26.93;nan;102201.44;5029755;28;20056;-48
2022/05/14 11:40:20;;;;;;;12.48;5.13;;;;;;;27.77;nan;102196.31;5023912;28;20283;-46
2022/05/14 11:42:48;;;;;;;15.50;5.38;;;;;;;26.37;nan;102192.34;5032537;28;20029;-45
2022/05/14 11:45:15;;;;;;;10.82;5.00;;;;;;;26.39;nan;102205.72;5032619;28;20097;-46
2022/05/14 11:47:46;;;;;;;10.30;4.20;;;;;;;26.94;nan;102188.78;5017710;28;20033;-49
2022/05/14 11:50:13;;;;;;;10.93;3.72;;;;;;;27.83;nan;102140.81;5029555;28;20426;-47
2022/05/14 11:52:44;;;;;;;10.38;4.18;;;;;;;28.92;nan;102190.91;5032707;28;20096;-50
2022/05/14 11:55:15;;;;;;;13.68;4.25;;;;;;;29.44;nan;102188.00;5032354;28;20037;-51
2022/05/14 11:57:55;;;;;;;13.13;4.18;;;;;;;29.69;nan;102183.03;5032294;28;20073;-51